sensor_id;sensor_type;location;lat;lon;timestamp;P1;durP1;ratioP1;P2;durP2;ratioP2
37203;SDS011;23098;48.054;10.636;2023-02-21T00:02:03;11.07;;;4.95;;
37203;SDS011;23098;48.054;10.636;2023-02-21T00:04:47;9.63;;;5.32;;
37203;SDS011;23098;48.054;10.636;2023-02-21T00:07:31;9.77;;;5.47;;
37203;SDS011;23098;48.054;10.636;2023-02-21T00:10:16;9.40;;;5.70;;
37203;SDS011;23098;48.054;10.636;2023-02-21T00:13:00;8.15;;;5.20;;
37203;SDS011;23098;48.054;10.636;2023-02-21T00:15:44;8.43;;;4.97;;
37203;SDS011;23098;48.054;10.636;2023-02-21T00:18:32;6.65;;;4.53;;
37203;SDS011;23098;48.054;10.636;2023-02-21T00:21:19;6.80;;;4.22;;
37203;SDS011;23098;48.054;10.636;2023-02-21T00:24:04;8.77;;;4.80;;
37203;SDS011;23098;48.054;10.636;2023-02-21T00:26:48;8.73;;;4.30;;
37203;SDS011;23098;48.054;10.636;2023-02-21T00:29:32;7.20;;;4.65;;
37203;SDS011;23098;48.054;10.636;2023-02-21T00:32:17;9.60;;;4.47;;
37203;SDS011;23098;48.054;10.636;2023-02-21T00:35:01;8.07;;;4.80;;
37203;SDS011;23098;48.054;10.636;2023-02-21T00:37:48;8.38;;;5.07;;
37203;SDS011;23098;48.054;10.636;2023-02-21T00:40:35;8.05;;;4.97;;
37203;SDS011;23098;48.054;10.636;2023-02-21T00:43:19;9.95;;;5.03;;
37203;SDS011;23098;48.054;10.636;2023-02-21T00:46:10;9.30;;;5.30;;
37203;SDS011;23098;48.054;10.636;2023-02-21T00:48:57;8.05;;;4.63;;
37203;SDS011;23098;48.054;10.636;2023-02-21T00:51:41;9.00;;;5.20;;
37203;SDS011;23098;48.054;10.636;2023-02-21T00:54:25;9.90;;;4.80;;
37203;SDS011;23098;48.054;10.636;2023-02-21T00:57:09;8.20;;;4.75;;
37203;SDS011;23098;48.054;10.636;2023-02-21T00:59:53;7.72;;;4.63;;
37203;SDS011;23098;48.054;10.636;2023-02-21T01:02:37;8.98;;;4.63;;
37203;SDS011;23098;48.054;10.636;2023-02-21T01:05:21;10.55;;;4.40;;
37203;SDS011;23098;48.054;10.636;2023-02-21T01:08:05;7.88;;;4.70;;
37203;SDS011;23098;48.054;10.636;2023-02-21T01:10:49;8.98;;;5.32;;
37203;SDS011;23098;48.054;10.636;2023-02-21T01:13:33;7.78;;;4.32;;
37203;SDS011;23098;48.054;10.636;2023-02-21T01:16:17;10.82;;;5.10;;
37203;SDS011;23098;48.054;10.636;2023-02-21T01:19:01;7.53;;;4.40;;
37203;SDS011;23098;48.054;10.636;2023-02-21T01:21:46;7.95;;;4.47;;
37203;SDS011;23098;48.054;10.636;2023-02-21T01:24:30;10.52;;;4.85;;
37203;SDS011;23098;48.054;10.636;2023-02-21T01:27:14;8.50;;;5.20;;
37203;SDS011;23098;48.054;10.636;2023-02-21T01:29:58;12.77;;;5.03;;
37203;SDS011;23098;48.054;10.636;2023-02-21T01:32:42;10.75;;;5.65;;
37203;SDS011;23098;48.054;10.636;2023-02-21T01:35:26;8.80;;;4.90;;
37203;SDS011;23098;48.054;10.636;2023-02-21T01:38:10;10.00;;;4.57;;
37203;SDS011;23098;48.054;10.636;2023-02-21T01:40:54;9.48;;;4.78;;
37203;SDS011;23098;48.054;10.636;2023-02-21T01:43:54;8.23;;;4.70;;
37203;SDS011;23098;48.054;10.636;2023-02-21T01:46:43;7.82;;;4.93;;
37203;SDS011;23098;48.054;10.636;2023-02-21T01:49:27;9.02;;;4.57;;
37203;SDS011;23098;48.054;10.636;2023-02-21T01:52:12;6.68;;;4.63;;
37203;SDS011;23098;48.054;10.636;2023-02-21T01:54:56;6.40;;;4.20;;
37203;SDS011;23098;48.054;10.636;2023-02-21T01:57:41;8.02;;;4.60;;
37203;SDS011;23098;48.054;10.636;2023-02-21T02:00:28;6.88;;;4.20;;
37203;SDS011;23098;48.054;10.636;2023-02-21T02:03:14;6.85;;;4.25;;
37203;SDS011;23098;48.054;10.636;2023-02-21T02:06:03;8.00;;;4.78;;
37203;SDS011;23098;48.054;10.636;2023-02-21T02:08:54;11.13;;;3.95;;
37203;SDS011;23098;48.054;10.636;2023-02-21T02:15:08;8.85;;;4.10;;
37203;SDS011;23098;48.054;10.636;2023-02-21T02:20:51;8.70;;;4.10;;
37203;SDS011;23098;48.054;10.636;2023-02-21T02:23:56;9.50;;;4.22;;
37203;SDS011;23098;48.054;10.636;2023-02-21T02:26:53;6.13;;;3.92;;
37203;SDS011;23098;48.054;10.636;2023-02-21T02:29:47;8.15;;;4.35;;
37203;SDS011;23098;48.054;10.636;2023-02-21T02:32:30;7.75;;;4.10;;
37203;SDS011;23098;48.054;10.636;2023-02-21T02:38:13;8.65;;;4.43;;
37203;SDS011;23098;48.054;10.636;2023-02-21T02:40:58;8.52;;;4.57;;
37203;SDS011;23098;48.054;10.636;2023-02-21T02:43:43;8.10;;;4.07;;
37203;SDS011;23098;48.054;10.636;2023-02-21T02:46:37;10.18;;;4.40;;
37203;SDS011;23098;48.054;10.636;2023-02-21T02:49:07;8.35;;;4.30;;
37203;SDS011;23098;48.054;10.636;2023-02-21T02:51:38;8.25;;;4.75;;
37203;SDS011;23098;48.054;10.636;2023-02-21T02:54:04;9.00;;;4.30;;
37203;SDS011;23098;48.054;10.636;2023-02-21T02:56:30;6.93;;;4.43;;
37203;SDS011;23098;48.054;10.636;2023-02-21T02:58:59;7.10;;;4.43;;
37203;SDS011;23098;48.054;10.636;2023-02-21T03:07:16;6.05;;;3.83;;
37203;SDS011;23098;48.054;10.636;2023-02-21T03:12:43;6.55;;;4.03;;
37203;SDS011;23098;48.054;10.636;2023-02-21T03:15:24;7.07;;;4.20;;
37203;SDS011;23098;48.054;10.636;2023-02-21T03:18:43;7.22;;;3.83;;
37203;SDS011;23098;48.054;10.636;2023-02-21T03:20:51;8.68;;;4.63;;
37203;SDS011;23098;48.054;10.636;2023-02-21T03:23:20;8.65;;;4.35;;
37203;SDS011;23098;48.054;10.636;2023-02-21T03:25:49;10.77;;;4.35;;
37203;SDS011;23098;48.054;10.636;2023-02-21T03:28:15;9.25;;;4.03;;
37203;SDS011;23098;48.054;10.636;2023-02-21T03:30:41;7.65;;;4.18;;
37203;SDS011;23098;48.054;10.636;2023-02-21T03:33:08;9.40;;;4.45;;
37203;SDS011;23098;48.054;10.636;2023-02-21T03:35:34;8.10;;;4.45;;
37203;SDS011;23098;48.054;10.636;2023-02-21T03:37:59;8.43;;;4.40;;
37203;SDS011;23098;48.054;10.636;2023-02-21T03:40:26;9.50;;;4.15;;
37203;SDS011;23098;48.054;10.636;2023-02-21T03:42:54;6.68;;;4.20;;
37203;SDS011;23098;48.054;10.636;2023-02-21T03:45:21;6.75;;;4.00;;
37203;SDS011;23098;48.054;10.636;2023-02-21T03:47:47;6.75;;;4.22;;
37203;SDS011;23098;48.054;10.636;2023-02-21T03:50:12;8.90;;;3.92;;
37203;SDS011;23098;48.054;10.636;2023-02-21T03:52:38;7.78;;;4.32;;
37203;SDS011;23098;48.054;10.636;2023-02-21T03:55:04;7.05;;;4.10;;
37203;SDS011;23098;48.054;10.636;2023-02-21T03:57:31;7.07;;;3.63;;
37203;SDS011;23098;48.054;10.636;2023-02-21T03:59:56;6.28;;;3.75;;
37203;SDS011;23098;48.054;10.636;2023-02-21T04:02:22;7.53;;;3.78;;
37203;SDS011;23098;48.054;10.636;2023-02-21T04:04:47;7.43;;;4.20;;
37203;SDS011;23098;48.054;10.636;2023-02-21T04:07:14;7.13;;;4.20;;
37203;SDS011;23098;48.054;10.636;2023-02-21T04:09:41;6.65;;;3.88;;
37203;SDS011;23098;48.054;10.636;2023-02-21T04:12:06;7.32;;;4.18;;
37203;SDS011;23098;48.054;10.636;2023-02-21T04:14:32;7.32;;;3.95;;
37203;SDS011;23098;48.054;10.636;2023-02-21T04:16:58;7.05;;;4.13;;
37203;SDS011;23098;48.054;10.636;2023-02-21T04:19:23;9.90;;;3.63;;
37203;SDS011;23098;48.054;10.636;2023-02-21T04:21:49;11.70;;;4.25;;
37203;SDS011;23098;48.054;10.636;2023-02-21T04:24:14;5.57;;;4.20;;
37203;SDS011;23098;48.054;10.636;2023-02-21T04:26:40;7.93;;;4.60;;
37203;SDS011;23098;48.054;10.636;2023-02-21T04:29:07;7.65;;;3.80;;
37203;SDS011;23098;48.054;10.636;2023-02-21T04:31:33;9.60;;;4.30;;
37203;SDS011;23098;48.054;10.636;2023-02-21T04:33:59;9.20;;;4.22;;
37203;SDS011;23098;48.054;10.636;2023-02-21T04:36:25;6.03;;;3.95;;
37203;SDS011;23098;48.054;10.636;2023-02-21T04:38:50;6.03;;;3.90;;
37203;SDS011;23098;48.054;10.636;2023-02-21T04:41:16;10.25;;;4.53;;
37203;SDS011;23098;48.054;10.636;2023-02-21T04:43:43;7.18;;;3.97;;
37203;SDS011;23098;48.054;10.636;2023-02-21T04:46:09;7.80;;;4.20;;
37203;SDS011;23098;48.054;10.636;2023-02-21T04:48:35;6.25;;;3.97;;
37203;SDS011;23098;48.054;10.636;2023-02-21T04:51:01;8.13;;;4.20;;
37203;SDS011;23098;48.054;10.636;2023-02-21T04:53:26;10.60;;;4.45;;
37203;SDS011;23098;48.054;10.636;2023-02-21T04:55:52;6.30;;;3.72;;
37203;SDS011;23098;48.054;10.636;2023-02-21T04:58:17;5.90;;;4.10;;
37203;SDS011;23098;48.054;10.636;2023-02-21T05:00:43;7.07;;;4.32;;
37203;SDS011;23098;48.054;10.636;2023-02-21T05:03:08;6.28;;;4.07;;
37203;SDS011;23098;48.054;10.636;2023-02-21T05:05:34;8.45;;;3.60;;
37203;SDS011;23098;48.054;10.636;2023-02-21T05:07:59;6.85;;;3.92;;
37203;SDS011;23098;48.054;10.636;2023-02-21T05:10:25;7.05;;;3.90;;
37203;SDS011;23098;48.054;10.636;2023-02-21T05:12:50;8.07;;;3.70;;
37203;SDS011;23098;48.054;10.636;2023-02-21T05:15:16;6.88;;;3.95;;
37203;SDS011;23098;48.054;10.636;2023-02-21T05:17:42;7.38;;;3.92;;
37203;SDS011;23098;48.054;10.636;2023-02-21T05:20:07;8.93;;;5.00;;
37203;SDS011;23098;48.054;10.636;2023-02-21T05:22:36;8.60;;;4.13;;
37203;SDS011;23098;48.054;10.636;2023-02-21T05:25:15;7.07;;;4.77;;
37203;SDS011;23098;48.054;10.636;2023-02-21T05:27:43;7.45;;;3.97;;
37203;SDS011;23098;48.054;10.636;2023-02-21T05:30:10;9.77;;;4.60;;
37203;SDS011;23098;48.054;10.636;2023-02-21T05:32:38;7.78;;;4.65;;
37203;SDS011;23098;48.054;10.636;2023-02-21T05:35:03;8.25;;;4.22;;
37203;SDS011;23098;48.054;10.636;2023-02-21T05:37:29;6.05;;;4.28;;
37203;SDS011;23098;48.054;10.636;2023-02-21T05:39:55;8.02;;;4.93;;
37203;SDS011;23098;48.054;10.636;2023-02-21T05:42:20;7.40;;;4.72;;
37203;SDS011;23098;48.054;10.636;2023-02-21T05:44:46;6.82;;;4.30;;
37203;SDS011;23098;48.054;10.636;2023-02-21T05:47:12;9.55;;;4.30;;
37203;SDS011;23098;48.054;10.636;2023-02-21T05:49:38;6.63;;;3.95;;
37203;SDS011;23098;48.054;10.636;2023-02-21T05:52:04;8.18;;;4.10;;
37203;SDS011;23098;48.054;10.636;2023-02-21T05:54:30;7.63;;;4.30;;
37203;SDS011;23098;48.054;10.636;2023-02-21T05:56:55;9.82;;;4.60;;
37203;SDS011;23098;48.054;10.636;2023-02-21T05:59:21;6.57;;;4.55;;
37203;SDS011;23098;48.054;10.636;2023-02-21T06:01:47;6.55;;;3.95;;
37203;SDS011;23098;48.054;10.636;2023-02-21T06:04:14;6.32;;;3.80;;
37203;SDS011;23098;48.054;10.636;2023-02-21T06:06:40;7.32;;;4.10;;
37203;SDS011;23098;48.054;10.636;2023-02-21T06:09:05;7.90;;;3.92;;
37203;SDS011;23098;48.054;10.636;2023-02-21T06:11:32;7.90;;;4.25;;
37203;SDS011;23098;48.054;10.636;2023-02-21T06:14:00;9.75;;;4.50;;
37203;SDS011;23098;48.054;10.636;2023-02-21T06:16:30;9.90;;;4.07;;
37203;SDS011;23098;48.054;10.636;2023-02-21T06:18:57;11.20;;;4.22;;
37203;SDS011;23098;48.054;10.636;2023-02-21T06:21:23;10.70;;;3.90;;
37203;SDS011;23098;48.054;10.636;2023-02-21T06:23:48;10.40;;;4.45;;
37203;SDS011;23098;48.054;10.636;2023-02-21T06:26:14;41.53;;;26.23;;
37203;SDS011;23098;48.054;10.636;2023-02-21T06:28:39;23.55;;;16.50;;
37203;SDS011;23098;48.054;10.636;2023-02-21T06:31:05;14.77;;;8.48;;
37203;SDS011;23098;48.054;10.636;2023-02-21T06:33:31;25.73;;;14.75;;
37203;SDS011;23098;48.054;10.636;2023-02-21T06:35:57;21.88;;;14.15;;
37203;SDS011;23098;48.054;10.636;2023-02-21T06:38:22;28.67;;;14.18;;
37203;SDS011;23098;48.054;10.636;2023-02-21T06:40:48;10.15;;;7.40;;
37203;SDS011;23098;48.054;10.636;2023-02-21T06:43:13;14.13;;;7.68;;
37203;SDS011;23098;48.054;10.636;2023-02-21T06:45:39;20.65;;;10.45;;
37203;SDS011;23098;48.054;10.636;2023-02-21T06:48:05;13.70;;;8.20;;
37203;SDS011;23098;48.054;10.636;2023-02-21T06:50:32;10.68;;;5.63;;
37203;SDS011;23098;48.054;10.636;2023-02-21T06:52:58;11.95;;;6.28;;
37203;SDS011;23098;48.054;10.636;2023-02-21T06:55:24;6.88;;;3.97;;
37203;SDS011;23098;48.054;10.636;2023-02-21T06:57:49;11.80;;;6.35;;
37203;SDS011;23098;48.054;10.636;2023-02-21T07:00:15;22.63;;;12.77;;
37203;SDS011;23098;48.054;10.636;2023-02-21T07:02:41;11.25;;;6.25;;
37203;SDS011;23098;48.054;10.636;2023-02-21T07:05:07;6.40;;;4.35;;
37203;SDS011;23098;48.054;10.636;2023-02-21T07:07:33;9.80;;;4.28;;
37203;SDS011;23098;48.054;10.636;2023-02-21T07:09:59;7.43;;;3.70;;
37203;SDS011;23098;48.054;10.636;2023-02-21T07:12:26;6.57;;;3.45;;
37203;SDS011;23098;48.054;10.636;2023-02-21T07:14:53;7.68;;;3.88;;
37203;SDS011;23098;48.054;10.636;2023-02-21T07:19:54;5.75;;;2.78;;
37203;SDS011;23098;48.054;10.636;2023-02-21T07:22:20;7.82;;;2.70;;
37203;SDS011;23098;48.054;10.636;2023-02-21T07:24:50;8.55;;;4.28;;
37203;SDS011;23098;48.054;10.636;2023-02-21T07:27:17;8.23;;;3.70;;
37203;SDS011;23098;48.054;10.636;2023-02-21T07:29:42;9.32;;;3.90;;
37203;SDS011;23098;48.054;10.636;2023-02-21T07:32:10;7.82;;;4.40;;
37203;SDS011;23098;48.054;10.636;2023-02-21T07:34:35;4.57;;;3.25;;
37203;SDS011;23098;48.054;10.636;2023-02-21T07:37:01;7.57;;;3.70;;
37203;SDS011;23098;48.054;10.636;2023-02-21T07:41:59;5.22;;;3.17;;
37203;SDS011;23098;48.054;10.636;2023-02-21T07:44:25;6.22;;;3.65;;
37203;SDS011;23098;48.054;10.636;2023-02-21T07:46:50;6.63;;;4.60;;
37203;SDS011;23098;48.054;10.636;2023-02-21T07:49:16;7.15;;;2.85;;
37203;SDS011;23098;48.054;10.636;2023-02-21T07:51:42;9.52;;;3.17;;
37203;SDS011;23098;48.054;10.636;2023-02-21T07:54:07;8.20;;;5.03;;
37203;SDS011;23098;48.054;10.636;2023-02-21T07:56:33;10.85;;;4.18;;
37203;SDS011;23098;48.054;10.636;2023-02-21T07:58:58;9.15;;;4.03;;
37203;SDS011;23098;48.054;10.636;2023-02-21T08:01:25;5.40;;;4.20;;
37203;SDS011;23098;48.054;10.636;2023-02-21T08:03:51;6.72;;;3.80;;
37203;SDS011;23098;48.054;10.636;2023-02-21T08:06:16;5.28;;;3.42;;
37203;SDS011;23098;48.054;10.636;2023-02-21T08:08:43;8.00;;;3.60;;
37203;SDS011;23098;48.054;10.636;2023-02-21T08:11:09;8.45;;;2.95;;
37203;SDS011;23098;48.054;10.636;2023-02-21T08:13:34;4.18;;;3.13;;
37203;SDS011;23098;48.054;10.636;2023-02-21T08:16:00;5.97;;;2.72;;
37203;SDS011;23098;48.054;10.636;2023-02-21T08:18:26;5.43;;;2.75;;
37203;SDS011;23098;48.054;10.636;2023-02-21T08:20:54;4.70;;;2.80;;
37203;SDS011;23098;48.054;10.636;2023-02-21T08:23:21;5.88;;;2.33;;
37203;SDS011;23098;48.054;10.636;2023-02-21T08:25:47;4.43;;;2.03;;
37203;SDS011;23098;48.054;10.636;2023-02-21T08:28:13;4.15;;;2.58;;
37203;SDS011;23098;48.054;10.636;2023-02-21T08:30:39;4.72;;;2.25;;
37203;SDS011;23098;48.054;10.636;2023-02-21T08:33:05;3.88;;;2.25;;
37203;SDS011;23098;48.054;10.636;2023-02-21T08:35:30;6.00;;;2.25;;
37203;SDS011;23098;48.054;10.636;2023-02-21T08:37:56;6.15;;;2.25;;
37203;SDS011;23098;48.054;10.636;2023-02-21T08:40:27;3.35;;;2.20;;
37203;SDS011;23098;48.054;10.636;2023-02-21T08:42:54;3.78;;;2.33;;
37203;SDS011;23098;48.054;10.636;2023-02-21T08:45:21;6.22;;;1.90;;
37203;SDS011;23098;48.054;10.636;2023-02-21T08:47:47;3.03;;;2.05;;
37203;SDS011;23098;48.054;10.636;2023-02-21T08:50:13;4.60;;;2.10;;
37203;SDS011;23098;48.054;10.636;2023-02-21T08:52:39;3.22;;;2.13;;
37203;SDS011;23098;48.054;10.636;2023-02-21T08:55:05;2.67;;;2.20;;
37203;SDS011;23098;48.054;10.636;2023-02-21T08:57:31;6.82;;;1.92;;
37203;SDS011;23098;48.054;10.636;2023-02-21T08:59:58;3.90;;;1.98;;
37203;SDS011;23098;48.054;10.636;2023-02-21T09:02:25;4.00;;;1.90;;
37203;SDS011;23098;48.054;10.636;2023-02-21T09:04:51;6.20;;;1.98;;
37203;SDS011;23098;48.054;10.636;2023-02-21T09:07:19;10.70;;;2.50;;
37203;SDS011;23098;48.054;10.636;2023-02-21T09:09:46;2.85;;;1.90;;
37203;SDS011;23098;48.054;10.636;2023-02-21T09:12:12;5.43;;;1.98;;
37203;SDS011;23098;48.054;10.636;2023-02-21T09:14:38;3.45;;;2.20;;
37203;SDS011;23098;48.054;10.636;2023-02-21T09:17:06;4.72;;;1.80;;
37203;SDS011;23098;48.054;10.636;2023-02-21T09:19:33;2.85;;;1.83;;
37203;SDS011;23098;48.054;10.636;2023-02-21T09:21:59;4.38;;;1.90;;
37203;SDS011;23098;48.054;10.636;2023-02-21T09:24:25;6.55;;;1.92;;
37203;SDS011;23098;48.054;10.636;2023-02-21T09:26:51;3.22;;;1.60;;
37203;SDS011;23098;48.054;10.636;2023-02-21T09:29:23;5.05;;;1.70;;
37203;SDS011;23098;48.054;10.636;2023-02-21T09:31:51;3.35;;;1.90;;
37203;SDS011;23098;48.054;10.636;2023-02-21T09:34:18;3.78;;;1.88;;
37203;SDS011;23098;48.054;10.636;2023-02-21T09:36:43;7.30;;;2.85;;
37203;SDS011;23098;48.054;10.636;2023-02-21T09:39:11;3.67;;;2.10;;
37203;SDS011;23098;48.054;10.636;2023-02-21T09:41:37;5.47;;;2.28;;
37203;SDS011;23098;48.054;10.636;2023-02-21T09:44:04;5.35;;;2.00;;
37203;SDS011;23098;48.054;10.636;2023-02-21T09:46:41;8.07;;;2.05;;
37203;SDS011;23098;48.054;10.636;2023-02-21T09:49:25;3.17;;;1.80;;
37203;SDS011;23098;48.054;10.636;2023-02-21T09:51:55;2.55;;;1.80;;
37203;SDS011;23098;48.054;10.636;2023-02-21T09:54:32;3.70;;;1.70;;
37203;SDS011;23098;48.054;10.636;2023-02-21T09:57:01;5.35;;;1.70;;
37203;SDS011;23098;48.054;10.636;2023-02-21T09:59:28;3.33;;;1.80;;
37203;SDS011;23098;48.054;10.636;2023-02-21T10:07:24;3.35;;;1.65;;
37203;SDS011;23098;48.054;10.636;2023-02-21T10:10:15;4.28;;;1.63;;
37203;SDS011;23098;48.054;10.636;2023-02-21T10:18:16;12.55;;;1.77;;
37203;SDS011;23098;48.054;10.636;2023-02-21T10:20:56;5.03;;;1.50;;
37203;SDS011;23098;48.054;10.636;2023-02-21T10:26:10;3.75;;;1.20;;
37203;SDS011;23098;48.054;10.636;2023-02-21T10:28:38;3.40;;;1.70;;
37203;SDS011;23098;48.054;10.636;2023-02-21T10:31:08;4.30;;;2.03;;
37203;SDS011;23098;48.054;10.636;2023-02-21T10:33:38;3.97;;;1.80;;
37203;SDS011;23098;48.054;10.636;2023-02-21T10:36:10;4.50;;;1.60;;
37203;SDS011;23098;48.054;10.636;2023-02-21T10:38:42;2.22;;;1.55;;
37203;SDS011;23098;48.054;10.636;2023-02-21T10:41:30;5.28;;;1.90;;
37203;SDS011;23098;48.054;10.636;2023-02-21T10:46:42;2.35;;;1.50;;
37203;SDS011;23098;48.054;10.636;2023-02-21T10:49:19;2.55;;;1.70;;
37203;SDS011;23098;48.054;10.636;2023-02-21T10:51:46;3.50;;;2.00;;
37203;SDS011;23098;48.054;10.636;2023-02-21T10:54:26;2.63;;;1.45;;
37203;SDS011;23098;48.054;10.636;2023-02-21T10:56:52;5.78;;;1.52;;
37203;SDS011;23098;48.054;10.636;2023-02-21T10:59:26;2.13;;;1.40;;
37203;SDS011;23098;48.054;10.636;2023-02-21T11:01:54;3.38;;;1.27;;
37203;SDS011;23098;48.054;10.636;2023-02-21T11:04:26;1.77;;;1.02;;
37203;SDS011;23098;48.054;10.636;2023-02-21T11:07:03;3.15;;;1.50;;
37203;SDS011;23098;48.054;10.636;2023-02-21T11:14:42;2.75;;;1.05;;
37203;SDS011;23098;48.054;10.636;2023-02-21T11:25:05;2.13;;;1.00;;
37203;SDS011;23098;48.054;10.636;2023-02-21T11:30:27;2.88;;;1.10;;
37203;SDS011;23098;48.054;10.636;2023-02-21T11:32:56;1.55;;;0.90;;
37203;SDS011;23098;48.054;10.636;2023-02-21T11:35:27;1.90;;;1.10;;
37203;SDS011;23098;48.054;10.636;2023-02-21T11:37:57;1.25;;;1.00;;
37203;SDS011;23098;48.054;10.636;2023-02-21T11:40:32;1.70;;;0.80;;
37203;SDS011;23098;48.054;10.636;2023-02-21T11:46:09;2.97;;;1.40;;
37203;SDS011;23098;48.054;10.636;2023-02-21T11:48:46;2.15;;;0.90;;
37203;SDS011;23098;48.054;10.636;2023-02-21T11:51:25;2.00;;;1.08;;
37203;SDS011;23098;48.054;10.636;2023-02-21T11:54:17;2.08;;;1.00;;
37203;SDS011;23098;48.054;10.636;2023-02-21T12:02:29;3.45;;;1.13;;
37203;SDS011;23098;48.054;10.636;2023-02-21T12:05:12;1.95;;;1.30;;
37203;SDS011;23098;48.054;10.636;2023-02-21T12:08:16;3.92;;;1.23;;
37203;SDS011;23098;48.054;10.636;2023-02-21T12:19:31;4.47;;;1.08;;
37203;SDS011;23098;48.054;10.636;2023-02-21T12:22:26;1.40;;;0.95;;
37203;SDS011;23098;48.054;10.636;2023-02-21T12:25:22;2.42;;;1.20;;
37203;SDS011;23098;48.054;10.636;2023-02-21T12:27:59;2.70;;;1.30;;
37203;SDS011;23098;48.054;10.636;2023-02-21T12:42:23;1.30;;;0.90;;
37203;SDS011;23098;48.054;10.636;2023-02-21T12:48:14;3.75;;;1.23;;
37203;SDS011;23098;48.054;10.636;2023-02-21T12:50:43;2.55;;;0.98;;
37203;SDS011;23098;48.054;10.636;2023-02-21T12:53:18;1.30;;;0.90;;
37203;SDS011;23098;48.054;10.636;2023-02-21T12:55:58;2.38;;;0.90;;
37203;SDS011;23098;48.054;10.636;2023-02-21T12:58:44;1.75;;;1.05;;
37203;SDS011;23098;48.054;10.636;2023-02-21T13:01:20;2.42;;;0.90;;
37203;SDS011;23098;48.054;10.636;2023-02-21T13:06:46;2.75;;;1.00;;
37203;SDS011;23098;48.054;10.636;2023-02-21T13:12:05;7.43;;;1.42;;
37203;SDS011;23098;48.054;10.636;2023-02-21T13:17:14;0.70;;;0.63;;
37203;SDS011;23098;48.054;10.636;2023-02-21T13:19:46;1.45;;;0.75;;
37203;SDS011;23098;48.054;10.636;2023-02-21T13:22:33;0.95;;;0.70;;
37203;SDS011;23098;48.054;10.636;2023-02-21T13:27:55;1.65;;;0.77;;
37203;SDS011;23098;48.054;10.636;2023-02-21T13:33:06;1.23;;;0.70;;
37203;SDS011;23098;48.054;10.636;2023-02-21T13:35:47;1.23;;;0.80;;
37203;SDS011;23098;48.054;10.636;2023-02-21T13:38:15;1.10;;;0.70;;
37203;SDS011;23098;48.054;10.636;2023-02-21T13:40:53;2.80;;;0.90;;
37203;SDS011;23098;48.054;10.636;2023-02-21T13:43:33;1.27;;;0.70;;
37203;SDS011;23098;48.054;10.636;2023-02-21T13:55:07;1.30;;;0.87;;
37203;SDS011;23098;48.054;10.636;2023-02-21T14:03:28;4.05;;;1.10;;
37203;SDS011;23098;48.054;10.636;2023-02-21T14:08:33;2.50;;;0.90;;
37203;SDS011;23098;48.054;10.636;2023-02-21T14:13:34;1.67;;;0.80;;
37203;SDS011;23098;48.054;10.636;2023-02-21T14:21:03;1.90;;;0.90;;
37203;SDS011;23098;48.054;10.636;2023-02-21T14:23:51;1.70;;;0.70;;
37203;SDS011;23098;48.054;10.636;2023-02-21T14:29:30;0.95;;;0.73;;
37203;SDS011;23098;48.054;10.636;2023-02-21T14:34:31;1.83;;;0.82;;
37203;SDS011;23098;48.054;10.636;2023-02-21T14:37:10;1.77;;;0.75;;
37203;SDS011;23098;48.054;10.636;2023-02-21T14:39:58;1.73;;;0.60;;
37203;SDS011;23098;48.054;10.636;2023-02-21T14:42:44;1.02;;;0.70;;
37203;SDS011;23098;48.054;10.636;2023-02-21T14:45:24;0.95;;;0.57;;
37203;SDS011;23098;48.054;10.636;2023-02-21T14:53:57;0.93;;;0.57;;
37203;SDS011;23098;48.054;10.636;2023-02-21T14:56:39;2.88;;;0.80;;
37203;SDS011;23098;48.054;10.636;2023-02-21T15:04:57;1.65;;;0.90;;
37203;SDS011;23098;48.054;10.636;2023-02-21T15:10:21;1.88;;;0.70;;
37203;SDS011;23098;48.054;10.636;2023-02-21T15:12:50;1.30;;;0.80;;
37203;SDS011;23098;48.054;10.636;2023-02-21T15:15:22;2.10;;;0.80;;
37203;SDS011;23098;48.054;10.636;2023-02-21T15:20:26;2.05;;;0.80;;
37203;SDS011;23098;48.054;10.636;2023-02-21T15:23:01;2.05;;;0.95;;
37203;SDS011;23098;48.054;10.636;2023-02-21T15:25:37;0.98;;;0.70;;
37203;SDS011;23098;48.054;10.636;2023-02-21T15:28:05;3.53;;;0.80;;
37203;SDS011;23098;48.054;10.636;2023-02-21T15:30:40;1.13;;;0.70;;
37203;SDS011;23098;48.054;10.636;2023-02-21T15:33:16;2.83;;;0.70;;
37203;SDS011;23098;48.054;10.636;2023-02-21T15:38:15;5.07;;;0.80;;
37203;SDS011;23098;48.054;10.636;2023-02-21T15:40:45;3.38;;;0.80;;
37203;SDS011;23098;48.054;10.636;2023-02-21T15:43:21;2.97;;;1.08;;
37203;SDS011;23098;48.054;10.636;2023-02-21T15:45:51;2.17;;;0.90;;
37203;SDS011;23098;48.054;10.636;2023-02-21T15:48:19;2.17;;;1.20;;
37203;SDS011;23098;48.054;10.636;2023-02-21T15:50:45;7.32;;;0.90;;
37203;SDS011;23098;48.054;10.636;2023-02-21T15:53:17;1.00;;;0.70;;
37203;SDS011;23098;48.054;10.636;2023-02-21T15:55:46;0.93;;;0.73;;
37203;SDS011;23098;48.054;10.636;2023-02-21T16:00:43;3.22;;;0.80;;
37203;SDS011;23098;48.054;10.636;2023-02-21T16:05:51;2.05;;;1.00;;
37203;SDS011;23098;48.054;10.636;2023-02-21T16:08:19;2.00;;;1.00;;
37203;SDS011;23098;48.054;10.636;2023-02-21T16:10:45;3.47;;;1.50;;
37203;SDS011;23098;48.054;10.636;2023-02-21T16:13:11;1.92;;;1.38;;
37203;SDS011;23098;48.054;10.636;2023-02-21T16:15:38;2.50;;;1.50;;
37203;SDS011;23098;48.054;10.636;2023-02-21T16:18:08;4.57;;;1.98;;
37203;SDS011;23098;48.054;10.636;2023-02-21T16:20:41;1.95;;;1.50;;
37203;SDS011;23098;48.054;10.636;2023-02-21T16:26:17;2.75;;;1.58;;
37203;SDS011;23098;48.054;10.636;2023-02-21T16:28:45;2.35;;;1.27;;
37203;SDS011;23098;48.054;10.636;2023-02-21T16:31:15;4.68;;;1.98;;
37203;SDS011;23098;48.054;10.636;2023-02-21T16:34:09;3.47;;;2.03;;
37203;SDS011;23098;48.054;10.636;2023-02-21T16:36:37;7.30;;;3.15;;
37203;SDS011;23098;48.054;10.636;2023-02-21T16:39:08;9.45;;;4.43;;
37203;SDS011;23098;48.054;10.636;2023-02-21T16:41:35;7.28;;;3.65;;
37203;SDS011;23098;48.054;10.636;2023-02-21T16:44:01;6.20;;;3.20;;
37203;SDS011;23098;48.054;10.636;2023-02-21T16:46:27;9.30;;;3.65;;
37203;SDS011;23098;48.054;10.636;2023-02-21T16:48:53;6.65;;;3.33;;
37203;SDS011;23098;48.054;10.636;2023-02-21T16:51:19;5.55;;;3.08;;
37203;SDS011;23098;48.054;10.636;2023-02-21T16:53:44;4.15;;;2.63;;
37203;SDS011;23098;48.054;10.636;2023-02-21T16:56:11;3.25;;;2.25;;
37203;SDS011;23098;48.054;10.636;2023-02-21T16:58:38;5.38;;;3.38;;
37203;SDS011;23098;48.054;10.636;2023-02-21T17:01:21;6.88;;;4.50;;
37203;SDS011;23098;48.054;10.636;2023-02-21T17:03:51;17.27;;;9.50;;
37203;SDS011;23098;48.054;10.636;2023-02-21T17:06:18;15.27;;;8.13;;
37203;SDS011;23098;48.054;10.636;2023-02-21T17:08:45;8.35;;;5.10;;
37203;SDS011;23098;48.054;10.636;2023-02-21T17:11:11;9.40;;;5.60;;
37203;SDS011;23098;48.054;10.636;2023-02-21T17:13:37;7.90;;;4.45;;
37203;SDS011;23098;48.054;10.636;2023-02-21T17:16:03;3.38;;;2.60;;
37203;SDS011;23098;48.054;10.636;2023-02-21T17:18:28;6.10;;;2.58;;
37203;SDS011;23098;48.054;10.636;2023-02-21T17:20:55;8.85;;;4.40;;
37203;SDS011;23098;48.054;10.636;2023-02-21T17:23:21;6.85;;;3.70;;
37203;SDS011;23098;48.054;10.636;2023-02-21T17:25:47;8.23;;;4.10;;
37203;SDS011;23098;48.054;10.636;2023-02-21T17:28:13;4.72;;;2.97;;
37203;SDS011;23098;48.054;10.636;2023-02-21T17:30:38;7.60;;;3.97;;
37203;SDS011;23098;48.054;10.636;2023-02-21T17:33:04;13.70;;;6.82;;
37203;SDS011;23098;48.054;10.636;2023-02-21T17:35:31;18.95;;;7.82;;
37203;SDS011;23098;48.054;10.636;2023-02-21T17:37:57;17.77;;;8.15;;
37203;SDS011;23098;48.054;10.636;2023-02-21T17:40:26;15.82;;;6.75;;
37203;SDS011;23098;48.054;10.636;2023-02-21T17:42:52;6.78;;;3.85;;